Combienbar, Australia
Current Conditions -  °F | °C
As of 6:00 AM on Saturday 25 Oct 2014 (Local Time) from YMER Reporting Station
Clear Clear  
Wind Chill: 57°   Ceiling: Unl
Heat Index: 57°   Visibility: 0.93mi
Dew Point: 57°   Wind: 2mph
Humidity: 100%   Direction: 260°W
Pressure: 29.94"   Gusts: NA
Location:  37.42°S, 149.01°E
Report Text: YMER 241900Z AUTO 26002KT 1500 // NCD 14/14 Q1014
Loading
Personal Weather Stations






























Interactive Weather Map
Tropical Storm Tracking
New forecast layout! Learn more

10-Day Weather Forecast

Advertisements
Track Severe Weather on mobile